Time;durP1;ratioP1;P1;durP2;ratioP2;P2;SDS_P1;SDS_P2;PMS_P1;PMS_P2;Temp;Humidity;BMP_temperature;BMP_pressure;BME280_temperature;BME280_humidity;BME280_pressure;Samples;Min_cycle;Max_cycle;Signal;HPM_P1;HPM_P2
2021/12/16 00:03:37;;;;;;;17.27;7.93;;;;;;;1.24;97.86;100225.16;5113296;28;20799;-67
2021/12/16 00:06:40;;;;;;;22.73;8.90;;;;;;;1.20;98.22;100227.78;5113691;28;20197;-68
2021/12/16 00:09:00;;;;;;;20.97;8.57;;;;;;;1.16;98.52;100221.94;5113064;28;20212;-60
2021/12/16 00:20:17;;;;;;;19.27;8.20;;;;;;;1.16;98.76;100226.13;5113016;28;20200;-68
2021/12/16 00:31:16;;;;;;;21.07;8.83;;;;;;;1.16;98.61;100218.56;5112952;28;20200;-67
2021/12/16 00:33:45;;;;;;;20.27;9.27;;;;;;;1.11;98.78;100214.47;5112678;28;20236;-60
2021/12/16 00:36:14;;;;;;;20.63;8.93;;;;;;;1.05;99.09;100219.59;5112889;28;20217;-60
2021/12/16 00:38:42;;;;;;;18.90;8.87;;;;;;;1.11;99.02;100219.50;5112617;28;20201;-67
2021/12/16 00:41:09;;;;;;;17.97;8.17;;;;;;;1.11;98.51;100218.66;5112903;28;20217;-67
2021/12/16 00:43:38;;;;;;;21.00;8.17;;;;;;;1.12;98.79;100223.66;5112434;27;20197;-60
2021/12/16 00:46:17;;;;;;;21.70;8.43;;;;;;;1.06;98.47;100216.22;5112606;28;20235;-68
2021/12/16 00:54:14;;;;;;;22.27;8.13;;;;;;;0.96;99.23;100219.72;5112437;28;20221;-68
2021/12/16 00:56:46;;;;;;;20.80;8.47;;;;;;;0.99;99.10;100219.69;5112689;28;20227;-60
2021/12/16 00:59:15;;;;;;;18.70;8.10;;;;;;;1.00;99.38;100215.47;5112027;28;20288;-60
2021/12/16 01:01:51;;;;;;;22.87;9.27;;;;;;;0.94;99.67;100201.28;5112045;28;20221;-66
2021/12/16 01:04:50;;;;;;;20.33;8.87;;;;;;;0.95;99.53;100207.97;5111434;27;20199;-60
2021/12/16 01:07:45;;;;;;;18.53;7.40;;;;;;;0.94;99.53;100203.81;5112022;28;20315;-67
2021/12/16 01:35:18;;;;;;;19.20;8.07;;;;;;;0.68;98.91;100189.91;5111992;28;20239;-60
2021/12/16 01:41:01;;;;;;;18.07;8.43;;;;;;;0.61;98.85;100185.81;5111390;28;20242;-68
2021/12/16 01:46:36;;;;;;;26.33;9.57;;;;;;;0.45;99.26;100177.63;5111489;28;20227;-61
2021/12/16 01:52:06;;;;;;;20.07;8.40;;;;;;;0.52;99.49;100182.59;5111891;28;20243;-68
2021/12/16 01:54:46;;;;;;;22.30;9.07;;;;;;;0.36;99.66;100187.00;5111467;28;20221;-60
2021/12/16 01:57:21;;;;;;;20.07;8.50;;;;;;;0.39;99.12;100187.78;5111587;28;20224;-61
2021/12/16 01:59:58;;;;;;;24.43;9.97;;;;;;;0.35;98.81;100195.38;5111276;28;20182;-60
2021/12/16 02:02:36;;;;;;;20.77;8.30;;;;;;;0.22;98.96;100185.47;5111725;28;20220;-68
2021/12/16 02:05:20;;;;;;;21.87;8.33;;;;;;;0.12;99.62;100188.13;5110936;28;20201;-60
2021/12/16 02:08:14;;;;;;;23.20;8.30;;;;;;;0.01;99.73;100178.19;5111094;28;20248;-67
2021/12/16 02:10:49;;;;;;;22.37;9.77;;;;;;;0.12;99.41;100183.94;5111016;28;20329;-61
2021/12/16 02:13:42;;;;;;;22.27;8.70;;;;;;;0.04;99.24;100180.69;5111211;28;20195;-68
2021/12/16 02:27:33;;;;;;;23.23;9.93;;;;;;;-0.21;100.00;100184.31;5111152;28;20220;-60
2021/12/16 02:32:54;;;;;;;26.37;10.13;;;;;;;-0.37;100.00;100179.44;5099479;28;20717;-60
2021/12/16 02:35:33;;;;;;;24.87;9.33;;;;;;;-0.46;100.00;100179.53;5110644;28;20237;-68
2021/12/16 02:38:05;;;;;;;26.57;10.20;;;;;;;-0.43;100.00;100184.53;5110806;28;20859;-60
2021/12/16 02:40:33;;;;;;;23.60;9.03;;;;;;;-0.43;100.00;100179.50;5110832;28;20241;-61
2021/12/16 02:43:09;;;;;;;23.40;10.30;;;;;;;-0.36;100.00;100181.09;5110743;28;20466;-60
2021/12/16 02:48:31;;;;;;;24.93;9.57;;;;;;;-0.54;100.00;100179.59;5110627;28;20709;-68
2021/12/16 02:51:00;;;;;;;26.53;9.57;;;;;;;-0.59;100.00;100177.97;5111127;28;20553;-60
2021/12/16 02:53:29;;;;;;;21.97;9.67;;;;;;;-0.72;100.00;100183.13;5110436;28;20696;-67
2021/12/16 02:55:56;;;;;;;26.03;9.53;;;;;;;-0.70;100.00;100180.56;5110642;28;20454;-67
2021/12/16 02:58:24;;;;;;;29.10;10.50;;;;;;;-0.74;100.00;100176.44;5110756;28;20208;-60
2021/12/16 03:00:56;;;;;;;26.43;10.07;;;;;;;-0.80;100.00;100164.75;5110783;28;20858;-60
2021/12/16 03:03:23;;;;;;;26.33;10.07;;;;;;;-0.76;100.00;100166.41;5110616;28;20445;-67
2021/12/16 03:05:50;;;;;;;22.27;9.50;;;;;;;-0.85;100.00;100168.97;5110367;28;20250;-60
2021/12/16 03:08:17;;;;;;;25.73;10.07;;;;;;;-0.85;100.00;100166.47;5110397;28;20446;-60
2021/12/16 03:13:31;;;;;;;27.23;10.73;;;;;;;-0.88;100.00;100168.19;5110042;28;20979;-60
2021/12/16 03:16:10;;;;;;;22.60;9.53;;;;;;;-0.89;100.00;100169.88;5110563;28;20967;-60
2021/12/16 03:18:45;;;;;;;25.77;10.73;;;;;;;-0.94;100.00;100171.56;5110633;28;20480;-60
2021/12/16 03:21:18;;;;;;;22.13;9.50;;;;;;;-0.93;100.00;100174.09;5110319;28;20209;-67
2021/12/16 03:23:59;;;;;;;23.37;9.73;;;;;;;-0.95;100.00;100175.75;5110542;28;20431;-60
2021/12/16 03:32:29;;;;;;;26.03;10.17;;;;;;;-1.06;100.00;100179.22;5088005;27;20741;-68
2021/12/16 03:35:01;;;;;;;23.90;9.57;;;;;;;-1.11;100.00;100174.22;5087698;28;20961;-69
2021/12/16 03:37:31;;;;;;;26.73;10.73;;;;;;;-1.14;100.00;100174.22;5088034;28;20906;-60
2021/12/16 03:40:01;;;;;;;27.90;10.33;;;;;;;-1.19;100.00;100171.78;5087812;28;20463;-61
2021/12/16 03:42:30;;;;;;;26.43;10.70;;;;;;;-1.12;100.00;100177.56;5087754;28;20467;-61
2021/12/16 03:45:05;;;;;;;24.90;10.27;;;;;;;-1.11;100.00;100183.41;5087661;28;20831;-68
2021/12/16 03:47:38;;;;;;;26.67;11.43;;;;;;;-1.22;100.00;100180.97;5088049;28;20509;-61
2021/12/16 03:50:09;;;;;;;26.97;10.97;;;;;;;-1.21;100.00;100188.50;5087459;28;20488;-63
2021/12/16 03:52:37;;;;;;;25.90;10.03;;;;;;;-1.18;100.00;100188.47;5087468;28;20482;-61
2021/12/16 03:55:05;;;;;;;27.40;11.07;;;;;;;-1.13;100.00;100185.94;5087437;28;20542;-68
2021/12/16 03:57:32;;;;;;;28.73;12.03;;;;;;;-1.20;100.00;100186.81;5087523;28;20468;-62
2021/12/16 04:00:00;;;;;;;29.83;11.50;;;;;;;-1.22;100.00;100186.84;5087711;28;20973;-61
2021/12/16 04:02:32;;;;;;;25.43;10.27;;;;;;;-1.16;100.00;100196.84;5087292;28;21054;-61
2021/12/16 04:05:01;;;;;;;30.27;11.13;;;;;;;-1.16;100.00;100196.00;5087449;28;20828;-61
2021/12/16 04:07:31;;;;;;;27.00;10.80;;;;;;;-1.22;100.00;100196.03;5087531;28;20887;-68
2021/12/16 04:09:59;;;;;;;24.93;10.83;;;;;;;-1.28;100.00;100196.06;5087543;28;20444;-61
2021/12/16 04:12:27;;;;;;;31.50;12.13;;;;;;;-1.26;100.00;100201.91;5087172;28;20475;-61
2021/12/16 04:14:57;;;;;;;28.97;10.60;;;;;;;-1.26;100.00;100190.19;5087443;28;20462;-62
2021/12/16 04:17:28;;;;;;;27.20;9.97;;;;;;;-1.22;100.00;100191.88;5087101;28;21001;-68
2021/12/16 04:19:55;;;;;;;28.77;10.23;;;;;;;-1.25;100.00;100186.00;5087230;28;20456;-61
2021/12/16 04:22:30;;;;;;;26.33;9.70;;;;;;;-1.21;100.00;100177.63;5087338;28;20494;-62
2021/12/16 04:25:01;;;;;;;26.67;10.40;;;;;;;-1.18;100.00;100183.47;5087098;28;20458;-68
2021/12/16 04:27:28;;;;;;;34.70;11.93;;;;;;;-1.18;100.00;100172.59;5087077;28;20467;-61
2021/12/16 04:29:57;;;;;;;26.37;10.80;;;;;;;-1.21;100.00;100178.47;5086699;28;20964;-67
2021/12/16 04:32:24;;;;;;;24.60;10.33;;;;;;;-1.17;100.00;100180.09;5087123;28;20991;-61
2021/12/16 04:34:51;;;;;;;26.27;9.97;;;;;;;-1.15;100.00;100178.41;5086695;28;20832;-69
2021/12/16 04:37:18;;;;;;;24.77;10.30;;;;;;;-1.22;100.00;100184.34;5086757;28;20993;-68
2021/12/16 04:39:47;;;;;;;28.23;10.57;;;;;;;-1.21;100.00;100183.47;5086741;28;20455;-68
2021/12/16 04:42:16;;;;;;;25.33;10.17;;;;;;;-1.27;100.00;100178.50;5080043;28;20472;-68
2021/12/16 04:44:44;;;;;;;27.30;10.97;;;;;;;-1.29;100.00;100185.19;5073215;28;20445;-69
2021/12/16 04:47:11;;;;;;;26.67;10.27;;;;;;;-1.25;100.00;100176.84;5072995;28;20465;-68
2021/12/16 04:49:38;;;;;;;33.13;10.77;;;;;;;-1.25;100.00;100184.34;5072892;28;20456;-68
2021/12/16 04:52:09;;;;;;;28.40;10.50;;;;;;;-1.28;100.00;100188.53;5072762;28;20497;-68
2021/12/16 04:54:35;;;;;;;24.97;10.53;;;;;;;-1.21;100.00;100188.50;5072719;28;20950;-61
2021/12/16 04:57:05;;;;;;;28.07;10.53;;;;;;;-1.27;100.00;100183.53;5072845;28;20461;-61
2021/12/16 04:59:34;;;;;;;28.70;10.40;;;;;;;-1.27;100.00;100178.50;5072729;28;20449;-60
2021/12/16 05:02:04;;;;;;;26.40;10.70;;;;;;;-1.30;100.00;100188.56;5072685;28;20997;-68
2021/12/16 05:04:31;;;;;;;24.47;11.03;;;;;;;-1.35;100.00;100182.72;5072691;28;20460;-60
2021/12/16 05:06:58;;;;;;;21.93;8.97;;;;;;;-1.38;100.00;100171.03;5072858;28;21260;-60
2021/12/16 05:10:00;;;;;;;25.43;10.03;;;;;;;-1.40;100.00;100171.88;5072676;28;20449;-67
2021/12/16 05:12:27;;;;;;;26.57;10.60;;;;;;;-1.38;100.00;100175.22;5072593;28;20855;-68
2021/12/16 05:14:54;;;;;;;27.17;10.63;;;;;;;-1.39;100.00;100173.56;5072804;28;20938;-68
2021/12/16 05:17:27;;;;;;;28.37;11.70;;;;;;;-1.44;100.00;100170.25;5072736;28;20465;-68
2021/12/16 05:19:56;;;;;;;29.60;11.43;;;;;;;-1.46;100.00;100176.94;5072855;28;20515;-68
2021/12/16 05:25:08;;;;;;;23.50;11.23;;;;;;;-1.51;100.00;100179.50;5049486;28;20556;-60
2021/12/16 05:27:37;;;;;;;24.13;9.87;;;;;;;-1.47;100.00;100181.13;5072558;28;20463;-60
2021/12/16 05:30:04;;;;;;;31.23;11.57;;;;;;;-1.50;100.00;100177.81;5072177;28;20949;-68
2021/12/16 05:32:31;;;;;;;27.97;10.47;;;;;;;-1.42;100.00;100178.63;5072163;28;20505;-60
2021/12/16 05:34:58;;;;;;;26.80;10.97;;;;;;;-1.50;100.00;100181.16;5072307;28;20881;-60
2021/12/16 05:37:25;;;;;;;26.83;11.30;;;;;;;-1.46;100.00;100177.78;5072168;28;21005;-68
2021/12/16 05:39:52;;;;;;;27.20;9.70;;;;;;;-1.46;100.00;100174.44;5072127;28;20985;-68
2021/12/16 05:42:18;;;;;;;29.07;11.67;;;;;;;-1.48;100.00;100176.13;5071895;28;20483;-60
2021/12/16 05:44:47;;;;;;;26.93;10.53;;;;;;;-1.49;100.00;100165.25;5072070;28;20445;-68
2021/12/16 05:47:13;;;;;;;27.67;10.70;;;;;;;-1.54;100.00;100173.63;5071810;28;20465;-60
2021/12/16 05:49:40;;;;;;;22.70;11.33;;;;;;;-1.52;100.00;100172.78;5072095;28;20897;-61
2021/12/16 05:52:08;;;;;;;31.37;11.47;;;;;;;-1.55;100.00;100177.00;5071611;28;20531;-68
2021/12/16 05:54:35;;;;;;;29.20;11.90;;;;;;;-1.50;100.00;100170.28;5070585;28;20499;-67
2021/12/16 05:57:02;;;;;;;29.13;10.90;;;;;;;-1.49;100.00;100179.47;5071683;28;20997;-60
2021/12/16 05:59:29;;;;;;;25.27;10.20;;;;;;;-1.50;100.00;100181.16;5071741;28;20448;-60
2021/12/16 06:01:58;;;;;;;29.23;11.00;;;;;;;-1.45;100.00;100181.13;5071785;28;20472;-67
2021/12/16 06:04:24;;;;;;;27.23;10.73;;;;;;;-1.40;100.00;100176.91;5071579;28;20453;-67
2021/12/16 06:06:52;;;;;;;29.07;11.53;;;;;;;-1.50;100.00;100178.63;5071418;28;20477;-60
2021/12/16 06:09:18;;;;;;;28.77;11.33;;;;;;;-1.42;100.00;100179.44;5071320;28;20457;-66
2021/12/16 06:11:47;;;;;;;26.00;11.50;;;;;;;-1.47;100.00;100180.31;5071159;28;21017;-60
2021/12/16 06:14:21;;;;;;;30.37;12.00;;;;;;;-1.44;100.00;100170.25;5071249;28;20448;-67
2021/12/16 06:22:41;;;;;;;29.60;11.23;;;;;;;-1.35;100.00;100177.72;5071469;28;20456;-68
2021/12/16 06:27:56;;;;;;;26.17;11.33;;;;;;;-1.26;100.00;100174.31;5071319;28;20448;-60
2021/12/16 06:30:28;;;;;;;28.17;9.73;;;;;;;-1.20;100.00;100172.59;5070886;28;20936;-60
2021/12/16 06:32:56;;;;;;;30.27;11.57;;;;;;;-1.16;100.00;100166.72;5071590;28;20472;-60
2021/12/16 06:35:25;;;;;;;29.90;11.60;;;;;;;-1.15;100.00;100185.13;5071336;28;20534;-60
2021/12/16 06:37:52;;;;;;;28.33;10.93;;;;;;;-1.10;100.00;100185.09;5071246;28;20844;-67
2021/12/16 06:40:19;;;;;;;25.80;10.70;;;;;;;-1.16;100.00;100176.75;5070851;28;20977;-60
2021/12/16 06:42:48;;;;;;;35.30;12.93;;;;;;;-1.06;100.00;100186.72;5070752;28;20464;-68
2021/12/16 06:45:21;;;;;;;31.67;11.87;;;;;;;-1.05;100.00;100183.38;5070701;28;20457;-60
2021/12/16 06:47:52;;;;;;;34.77;12.60;;;;;;;-1.08;100.00;100185.91;5070695;28;20543;-67
2021/12/16 06:50:28;;;;;;;33.60;12.53;;;;;;;-0.97;100.00;100186.66;5070881;28;20468;-60
2021/12/16 06:53:01;;;;;;;30.90;12.63;;;;;;;-0.81;100.00;100178.19;5070981;28;20993;-68
2021/12/16 06:55:30;;;;;;;37.57;12.87;;;;;;;-0.66;100.00;100181.41;5071025;28;20452;-60
2021/12/16 06:58:07;;;;;;;27.07;11.13;;;;;;;-0.62;100.00;100178.00;5070809;28;20476;-60
2021/12/16 07:00:39;;;;;;;34.10;11.47;;;;;;;-0.56;100.00;100181.28;5070844;28;20441;-67
2021/12/16 07:03:17;;;;;;;42.07;15.37;;;;;;;-0.54;100.00;100186.31;5070528;28;20460;-68
2021/12/16 07:05:44;;;;;;;53.67;20.73;;;;;;;-0.42;100.00;100180.34;5070439;28;20448;-60
2021/12/16 07:08:17;;;;;;;38.37;16.40;;;;;;;-0.28;100.00;100193.59;5070401;28;20522;-60
2021/12/16 07:10:45;;;;;;;37.53;13.50;;;;;;;-0.22;100.00;100182.66;5070462;28;20206;-68
2021/12/16 07:13:18;;;;;;;28.53;11.87;;;;;;;-0.16;100.00;100192.63;5070365;28;20690;-68
2021/12/16 07:15:46;;;;;;;31.40;12.47;;;;;;;-0.09;100.00;100189.19;5070496;28;20203;-68
2021/12/16 07:18:13;;;;;;;31.90;12.63;;;;;;;0.07;100.00;100194.91;5070342;28;20448;-68
2021/12/16 07:20:40;;;;;;;33.50;14.33;;;;;;;-0.03;100.00;100199.19;5070288;28;20203;-68
2021/12/16 07:23:09;;;;;;;29.93;12.00;;;;;;;0.00;100.00;100191.63;5070223;28;20230;-67
2021/12/16 07:25:37;;;;;;;25.83;10.33;;;;;;;-0.01;100.00;100200.00;5070339;28;20203;-67
2021/12/16 07:28:07;;;;;;;28.00;11.73;;;;;;;0.12;100.00;100199.03;5070578;28;20464;-61
2021/12/16 07:30:36;;;;;;;31.33;12.47;;;;;;;0.22;100.00;100203.09;5070219;28;20465;-68
2021/12/16 07:33:03;;;;;;;28.93;11.40;;;;;;;0.06;100.00;100209.16;5070114;28;20238;-68
2021/12/16 07:35:30;;;;;;;28.90;12.20;;;;;;;0.01;100.00;100203.34;5070248;28;20213;-67
2021/12/16 07:37:58;;;;;;;27.43;11.23;;;;;;;0.04;100.00;100200.78;5070377;28;20230;-68
2021/12/16 07:40:27;;;;;;;27.17;11.40;;;;;;;0.01;100.00;100198.31;5070525;28;20207;-61
2021/12/16 07:43:11;;;;;;;22.80;9.77;;;;;;;0.11;100.00;100186.44;5070162;28;20476;-60
2021/12/16 07:45:40;;;;;;;27.47;10.83;;;;;;;0.14;100.00;100194.78;5070233;28;20199;-60
2021/12/16 07:48:07;;;;;;;22.93;10.47;;;;;;;0.23;100.00;100188.81;5070394;28;20222;-65
2021/12/16 07:50:34;;;;;;;27.47;11.10;;;;;;;0.29;100.00;100200.47;5070145;28;20210;-60
2021/12/16 07:53:01;;;;;;;27.60;11.50;;;;;;;0.35;100.00;100193.72;5070165;28;20241;-68
2021/12/16 07:55:28;;;;;;;24.30;10.07;;;;;;;0.51;100.00;100201.88;5070113;28;20687;-60
2021/12/16 07:57:56;;;;;;;28.13;11.00;;;;;;;0.63;100.00;100203.41;5070086;28;20218;-68
2021/12/16 08:00:27;;;;;;;24.73;10.93;;;;;;;0.79;100.00;100204.88;5070107;28;20210;-68
2021/12/16 08:02:54;;;;;;;31.07;11.20;;;;;;;0.84;99.83;100204.78;5070065;28;20229;-61
2021/12/16 08:05:25;;;;;;;26.47;11.20;;;;;;;0.95;99.59;100207.97;5069884;28;20225;-67
2021/12/16 08:07:53;;;;;;;25.93;11.50;;;;;;;0.89;99.18;100213.09;5069977;28;20218;-60
2021/12/16 08:10:24;;;;;;;28.97;11.27;;;;;;;0.97;98.63;100211.31;5069843;28;20203;-60
2021/12/16 08:12:52;;;;;;;32.20;11.07;;;;;;;1.20;98.40;100207.63;5069811;28;20242;-68
2021/12/16 08:15:20;;;;;;;27.03;10.93;;;;;;;1.36;97.44;100203.97;5069823;28;20586;-60
2021/12/16 08:17:47;;;;;;;25.40;10.63;;;;;;;1.38;96.24;100207.31;5071718;28;20222;-67
2021/12/16 08:20:16;;;;;;;28.00;11.60;;;;;;;1.55;96.76;100205.34;5073585;28;20205;-61
2021/12/16 08:22:44;;;;;;;26.10;11.20;;;;;;;1.43;96.00;100214.81;5073359;28;20727;-68
2021/12/16 08:25:11;;;;;;;27.20;11.00;;;;;;;1.53;96.41;100212.09;5073586;28;20203;-68
2021/12/16 08:27:39;;;;;;;27.00;11.77;;;;;;;1.56;95.53;100212.03;5073584;28;20222;-61
2021/12/16 08:30:09;;;;;;;26.20;10.63;;;;;;;1.58;95.30;100219.56;5073322;28;20207;-68
2021/12/16 08:32:37;;;;;;;22.60;9.53;;;;;;;1.73;95.04;100226.03;5073223;28;20235;-60
2021/12/16 08:35:09;;;;;;;23.50;9.73;;;;;;;1.87;94.20;100226.63;5073313;28;20221;-61
2021/12/16 08:37:36;;;;;;;24.10;10.27;;;;;;;2.00;94.38;100220.47;5073464;28;20215;-61
2021/12/16 08:40:06;;;;;;;22.83;10.27;;;;;;;2.25;93.45;100217.50;5073204;28;20206;-61
2021/12/16 08:42:33;;;;;;;22.87;9.00;;;;;;;2.13;92.51;100215.22;5073163;28;20222;-68
2021/12/16 08:44:59;;;;;;;28.47;10.30;;;;;;;2.35;92.88;100208.84;5073041;28;20210;-68
2021/12/16 08:47:26;;;;;;;21.37;10.33;;;;;;;2.53;92.31;100211.88;5073389;28;20226;-68
2021/12/16 08:49:55;;;;;;;25.63;10.23;;;;;;;2.67;91.47;100215.75;5073055;28;20277;-68
2021/12/16 08:52:23;;;;;;;25.17;9.50;;;;;;;2.65;91.03;100211.63;5073016;28;20242;-68
2021/12/16 08:54:52;;;;;;;23.53;9.90;;;;;;;2.81;91.01;100214.63;5073157;28;20237;-68
2021/12/16 08:57:19;;;;;;;21.23;9.57;;;;;;;2.84;90.60;100205.28;5072892;28;20507;-61
2021/12/16 08:59:48;;;;;;;21.97;8.93;;;;;;;2.89;90.01;100206.00;5072630;28;20698;-61
2021/12/16 09:02:17;;;;;;;24.33;10.57;;;;;;;3.04;89.98;100209.06;5072921;28;20313;-68
2021/12/16 09:04:44;;;;;;;22.63;9.40;;;;;;;3.11;89.43;100211.41;5072682;28;20281;-68
2021/12/16 09:07:13;;;;;;;20.33;10.23;;;;;;;3.20;88.94;100210.38;5072684;28;20222;-61
2021/12/16 09:09:43;;;;;;;22.83;10.00;;;;;;;3.15;88.85;100209.63;5072771;28;20199;-61
2021/12/16 09:12:35;;;;;;;21.90;9.90;;;;;;;3.34;89.25;100212.53;5072692;28;20237;-61
2021/12/16 09:15:02;;;;;;;18.23;8.10;;;;;;;3.34;88.51;100208.31;5072611;28;20207;-62
2021/12/16 09:17:29;;;;;;;24.33;10.33;;;;;;;3.51;88.50;100209.59;5072798;28;20218;-61
2021/12/16 09:19:56;;;;;;;24.50;10.10;;;;;;;3.60;86.90;100209.38;5072527;28;20194;-68
2021/12/16 09:22:27;;;;;;;23.20;10.00;;;;;;;3.46;87.49;100212.25;5072427;28;20219;-61
2021/12/16 09:24:56;;;;;;;27.80;11.33;;;;;;;3.72;88.60;100213.28;5072684;28;20201;-68
2021/12/16 09:27:24;;;;;;;23.17;11.33;;;;;;;3.84;86.85;100203.69;5072678;28;20222;-68
2021/12/16 09:29:51;;;;;;;22.10;10.80;;;;;;;3.90;85.76;100196.78;5072068;28;20214;-68
2021/12/16 09:32:22;;;;;;;20.13;10.50;;;;;;;4.22;86.15;100194.22;5072177;28;20311;-67
2021/12/16 09:34:50;;;;;;;24.83;11.07;;;;;;;4.34;84.93;100182.91;5072216;28;20207;-61
2021/12/16 09:37:17;;;;;;;24.50;10.40;;;;;;;4.00;84.49;100178.78;5072448;28;20254;-68
2021/12/16 09:39:45;;;;;;;24.13;10.43;;;;;;;4.15;84.66;100190.16;5072136;28;20253;-61
2021/12/16 09:42:12;;;;;;;20.63;9.83;;;;;;;4.05;84.67;100191.31;5072045;28;20211;-67
2021/12/16 09:44:40;;;;;;;24.17;11.47;;;;;;;4.04;84.99;100192.16;5071930;28;20580;-61
2021/12/16 09:47:10;;;;;;;20.67;10.23;;;;;;;4.58;84.87;100183.03;5071746;28;20246;-62
2021/12/16 09:49:38;;;;;;;22.37;10.67;;;;;;;4.71;82.40;100181.78;5071739;28;20625;-62
2021/12/16 09:52:06;;;;;;;23.83;10.50;;;;;;;5.14;83.14;100186.34;5071785;28;20295;-61
2021/12/16 09:54:34;;;;;;;23.03;11.37;;;;;;;5.05;80.99;100181.56;5071692;28;20210;-68
2021/12/16 09:57:04;;;;;;;21.77;10.30;;;;;;;4.94;81.71;100176.84;5071757;28;20226;-61
2021/12/16 09:59:33;;;;;;;26.53;10.90;;;;;;;5.25;81.11;100180.94;5071761;28;20207;-61
2021/12/16 10:02:04;;;;;;;22.37;10.90;;;;;;;5.57;80.27;100179.84;5071664;28;20227;-61
2021/12/16 10:04:32;;;;;;;23.23;10.67;;;;;;;5.71;80.40;100178.56;5071582;28;20716;-61
2021/12/16 10:07:01;;;;;;;24.43;10.77;;;;;;;5.89;79.59;100170.28;5072021;28;20721;-68
2021/12/16 10:09:29;;;;;;;26.67;11.57;;;;;;;5.54;79.03;100174.88;5071485;28;20202;-68
2021/12/16 10:11:59;;;;;;;26.20;11.20;;;;;;;5.78;79.81;100162.22;5071875;28;20707;-69
2021/12/16 10:14:47;;;;;;;23.77;10.57;;;;;;;5.51;79.04;100177.53;5071923;28;20205;-69
2021/12/16 10:17:24;;;;;;;21.80;11.53;;;;;;;5.29;79.95;100174.03;5071464;28;20257;-69
2021/12/16 10:19:52;;;;;;;26.63;12.07;;;;;;;5.14;80.91;100161.00;5071677;28;20210;-61
2021/12/16 10:22:22;;;;;;;27.27;12.43;;;;;;;5.29;80.35;100168.97;5071152;28;20309;-61
2021/12/16 10:24:51;;;;;;;25.27;12.23;;;;;;;5.29;80.32;100158.84;5071248;28;20210;-68
2021/12/16 10:27:20;;;;;;;24.60;11.80;;;;;;;5.37;80.34;100161.94;5071213;28;20231;-61
2021/12/16 10:29:52;;;;;;;23.97;11.40;;;;;;;5.56;78.80;100168.06;5070876;28;20206;-68
2021/12/16 10:32:41;;;;;;;28.73;11.63;;;;;;;5.47;78.56;100158.22;5071031;28;20238;-61
2021/12/16 10:35:12;;;;;;;29.00;11.77;;;;;;;5.23;79.08;100154.78;5071205;28;20309;-60
2021/12/16 10:37:42;;;;;;;29.63;12.07;;;;;;;5.20;79.60;100152.34;5071082;28;20214;-68
2021/12/16 10:40:28;;;;;;;25.87;12.07;;;;;;;4.69;81.96;100138.78;5070436;28;20210;-68
2021/12/16 10:42:56;;;;;;;25.77;11.83;;;;;;;5.26;82.99;100138.66;5071012;28;20230;-68
2021/12/16 10:45:31;;;;;;;23.67;11.43;;;;;;;5.52;79.36;100137.75;5071103;28;20205;-61
2021/12/16 10:48:11;;;;;;;27.00;12.27;;;;;;;5.12;81.18;100126.44;5071024;28;20225;-61
2021/12/16 10:51:09;;;;;;;29.33;12.53;;;;;;;5.13;81.63;100123.03;5071027;28;20635;-60
2021/12/16 10:54:13;;;;;;;26.30;11.13;;;;;;;5.22;81.33;100122.72;5070489;28;20347;-67
2021/12/16 10:56:48;;;;;;;25.10;11.97;;;;;;;5.26;80.65;100128.50;5070991;28;20229;-68
2021/12/16 10:59:18;;;;;;;28.10;12.03;;;;;;;5.43;82.49;100121.16;5070591;28;20202;-60
2021/12/16 11:01:54;;;;;;;26.10;11.10;;;;;;;5.88;80.05;100113.63;5070643;28;20226;-68
2021/12/16 11:04:26;;;;;;;29.17;12.00;;;;;;;5.70;79.44;100113.47;5070834;28;20194;-67
2021/12/16 11:06:57;;;;;;;24.87;11.77;;;;;;;5.43;80.62;100111.00;5071001;28;20219;-67
2021/12/16 11:09:36;;;;;;;22.93;11.00;;;;;;;5.00;81.65;100117.53;5070542;28;20683;-60
2021/12/16 11:12:12;;;;;;;26.90;12.23;;;;;;;5.39;82.54;100109.47;5070536;28;20226;-61
2021/12/16 11:14:42;;;;;;;27.00;12.03;;;;;;;5.51;82.09;100106.50;5070328;28;20198;-60
2021/12/16 11:17:12;;;;;;;23.53;10.53;;;;;;;5.27;82.73;100104.81;5070562;28;20590;-60
2021/12/16 11:19:46;;;;;;;27.63;12.63;;;;;;;5.27;83.56;100107.38;5070485;28;20199;-59
2021/12/16 11:22:16;;;;;;;22.30;10.80;;;;;;;5.42;81.28;100110.19;5070622;28;20222;-68
2021/12/16 11:24:44;;;;;;;20.67;10.17;;;;;;;5.51;80.83;100103.16;5070181;28;20205;-60
2021/12/16 11:27:29;;;;;;;26.67;10.83;;;;;;;5.60;79.74;100108.72;5070329;28;20218;-68
2021/12/16 11:29:58;;;;;;;21.70;9.50;;;;;;;5.67;81.06;100107.63;5070381;28;20590;-60
2021/12/16 11:32:39;;;;;;;23.17;10.47;;;;;;;5.85;80.41;100108.69;5070394;28;20234;-68
2021/12/16 11:35:26;;;;;;;22.87;10.43;;;;;;;6.37;79.20;100105.94;5070247;28;20199;-67
2021/12/16 11:37:53;;;;;;;20.37;9.53;;;;;;;6.42;78.69;100104.03;5070144;28;20742;-60
2021/12/16 11:40:21;;;;;;;21.53;10.07;;;;;;;6.20;78.85;100103.22;5070568;28;20580;-62
2021/12/16 11:43:04;;;;;;;22.57;10.23;;;;;;;5.86;79.56;100109.50;5070587;28;20234;-68
2021/12/16 11:45:36;;;;;;;20.20;10.60;;;;;;;5.37;80.32;100096.00;5070187;28;20224;-69
2021/12/16 11:48:07;;;;;;;23.63;10.17;;;;;;;5.44;81.60;100097.47;5070145;28;20219;-67
2021/12/16 11:50:44;;;;;;;20.73;10.10;;;;;;;5.39;82.12;100099.34;5070298;28;20221;-68
2021/12/16 11:53:11;;;;;;;23.30;9.27;;;;;;;5.31;82.84;100091.16;5072733;28;20325;-67
2021/12/16 11:55:39;;;;;;;17.00;8.37;;;;;;;5.13;82.47;100093.44;5074310;28;20198;-60
2021/12/16 11:58:08;;;;;;;21.97;10.30;;;;;;;5.00;84.36;100089.63;5073967;28;20214;-67
2021/12/16 12:00:38;;;;;;;21.77;10.53;;;;;;;4.89;84.45;100089.19;5073839;28;20213;-59
2021/12/16 12:03:09;;;;;;;21.73;10.40;;;;;;;4.70;84.56;100082.16;5073977;28;20289;-60
2021/12/16 12:05:42;;;;;;;19.23;9.17;;;;;;;4.70;84.69;100074.56;5074131;28;20221;-67
2021/12/16 12:08:13;;;;;;;25.87;10.57;;;;;;;4.65;85.86;100076.41;5073815;28;20218;-60
2021/12/16 12:10:44;;;;;;;23.53;9.93;;;;;;;4.71;86.34;100078.78;5073935;28;20672;-68
2021/12/16 12:13:14;;;;;;;20.27;10.40;;;;;;;4.60;85.91;100078.28;5073798;28;20643;-60
2021/12/16 12:16:01;;;;;;;23.80;10.67;;;;;;;4.50;86.62;100074.38;5073583;28;20710;-60
2021/12/16 12:18:42;;;;;;;20.87;10.00;;;;;;;4.66;86.83;100073.03;5073690;28;20206;-68
2021/12/16 12:21:25;;;;;;;21.10;9.80;;;;;;;4.64;87.66;100067.16;5073856;28;20219;-68
2021/12/16 12:23:54;;;;;;;20.43;9.53;;;;;;;4.55;86.19;100059.88;5073559;28;20206;-67
2021/12/16 12:26:23;;;;;;;24.57;11.07;;;;;;;4.45;87.14;100063.56;5073567;28;20798;-68
2021/12/16 12:28:54;;;;;;;23.27;10.83;;;;;;;4.66;86.86;100062.06;5073322;28;20211;-67
2021/12/16 12:31:23;;;;;;;22.90;11.27;;;;;;;4.57;86.60;100068.25;5073434;28;20226;-60
2021/12/16 12:33:51;;;;;;;21.07;10.63;;;;;;;4.43;86.63;100058.56;5073255;28;20734;-68
2021/12/16 12:36:21;;;;;;;22.27;10.40;;;;;;;4.43;86.76;100050.13;5073385;28;20226;-68
2021/12/16 12:38:48;;;;;;;24.63;10.27;;;;;;;4.44;87.00;100057.66;5073356;28;20209;-60
2021/12/16 12:41:16;;;;;;;21.27;9.97;;;;;;;4.44;87.38;100061.91;5073172;28;20584;-67
2021/12/16 12:43:42;;;;;;;23.37;10.83;;;;;;;4.47;87.86;100057.56;5072972;28;20264;-67
2021/12/16 12:46:13;;;;;;;23.33;11.47;;;;;;;4.45;87.46;100050.91;5073021;28;20284;-60
2021/12/16 12:48:41;;;;;;;21.33;10.93;;;;;;;4.30;88.62;100048.00;5073032;28;20199;-68
2021/12/16 12:51:10;;;;;;;21.23;10.03;;;;;;;4.41;88.94;100041.75;5073015;28;20218;-60
2021/12/16 12:53:46;;;;;;;18.00;8.70;;;;;;;4.44;88.81;100041.66;5072748;28;20234;-67
2021/12/16 12:56:16;;;;;;;20.93;10.27;;;;;;;4.44;88.44;100034.06;5073243;28;20237;-67
2021/12/16 12:58:59;;;;;;;27.37;10.77;;;;;;;4.49;88.25;100039.81;5072677;28;20260;-60
2021/12/16 13:01:38;;;;;;;25.30;10.67;;;;;;;4.32;87.87;100038.63;5073213;28;20222;-59
2021/12/16 13:04:11;;;;;;;23.70;11.30;;;;;;;4.38;88.69;100045.22;5072459;28;20256;-67
2021/12/16 13:06:57;;;;;;;26.83;10.87;;;;;;;4.19;88.38;100044.97;5072756;28;20607;-66